CheckWX is a tool to help pilots better visualize weather data.  It is not intended as a substitute for an official pre-flight weather briefing.

22:22:15 UTC

24J METAR
Suwannee County Airport
Live Oak, Florida, USA
Current

7 mins ago

K24J 152215Z AUTO 00000KT 10SM VCTS CLR 35/20 A3006 RMK A01 LTG DSNT E AND SW
Observed
Jul-15 @ 22:15 UTC
Visibility
10 SM
Flight Rules
VFR
Conditions
Area Thunderstorm
Cloud Levels
  • Clear skies
Temperature
35°C / 95°F
Dewpoint
20°C / 68°F
Heat Index
38°C / 100°F
Humidity
41%
Altimeter
30.06" Hg
Pressure
1017.92 hPa
Previous

27 mins ago

K24J 152155Z AUTO 00000KT 10SM CLR 35/20 A3006 RMK A01 LTG DSNT S
Observed
Jul-15 @ 21:55 UTC
Visibility
10 SM
Flight Rules
VFR
Cloud Levels
  • Clear skies
Temperature
35°C / 95°F
Dewpoint
20°C / 68°F
Heat Index
38°C / 100°F
Humidity
41%
Altimeter
30.06" Hg
Pressure
1017.92 hPa
Previous

47 mins ago

K24J 152135Z AUTO 00000KT 10SM CLR 35/20 A3006 RMK A01 LTG DSNT S
Observed
Jul-15 @ 21:35 UTC
Visibility
10 SM
Flight Rules
VFR
Cloud Levels
  • Clear skies
Temperature
35°C / 95°F
Dewpoint
20°C / 68°F
Heat Index
38°C / 100°F
Humidity
41%
Altimeter
30.06" Hg
Pressure
1017.92 hPa